createdAt,value
2022-11-21T00:01:41.713Z,97543.72
2022-11-21T00:03:43.683Z,97548.31
2022-11-21T00:05:50.868Z,97554.59
2022-11-21T00:07:52.567Z,97543.44
2022-11-21T00:09:57.269Z,97543.19
2022-11-21T00:11:58.802Z,97536.41
2022-11-21T00:14:00.599Z,97545.63
2022-11-21T00:16:10.320Z,97544.78
2022-11-21T00:18:12.918Z,97539.09
2022-11-21T00:20:14.728Z,97531.78
2022-11-21T00:22:17.593Z,97533.41
2022-11-21T00:24:19.225Z,97530.66
2022-11-21T00:26:20.669Z,97524.16
2022-11-21T00:28:22.406Z,97530.66
2022-11-21T00:30:23.997Z,97519.56
2022-11-21T00:32:25.832Z,97514.91
2022-11-21T00:34:31.230Z,97517.63
2022-11-21T00:36:35.732Z,97511.13
2022-11-21T00:38:42.427Z,97521.72
2022-11-21T00:40:45.113Z,97519.00
2022-11-21T00:43:41.986Z,97520.09
2022-11-21T00:45:43.563Z,97518.19
2022-11-21T00:47:45.233Z,97522.53
2022-11-21T00:49:46.950Z,97525.00
2022-11-21T00:51:48.480Z,97520.34
2022-11-21T00:56:42.788Z,97522.00
2022-11-21T01:01:42.910Z,97516.56
2022-11-21T01:03:55.325Z,97511.66
2022-11-21T01:06:32.554Z,97507.88
2022-11-21T01:11:40.236Z,97497.00
2022-11-21T01:16:30.565Z,97501.09
2022-11-21T01:18:46.883Z,97503.50
2022-11-21T01:21:27.869Z,97501.34
2022-11-21T01:26:29.714Z,97491.28
2022-11-21T01:28:34.511Z,97499.19
2022-11-21T01:34:27.494Z,97503.28
2022-11-21T01:37:22.936Z,97494.00
2022-11-21T01:39:27.427Z,97500.00
2022-11-21T01:42:06.676Z,97505.72
2022-11-21T01:44:49.291Z,97500.81
2022-11-21T01:47:12.555Z,97499.47
2022-11-21T01:49:43.067Z,97501.94
2022-11-21T01:52:07.511Z,97495.38
2022-11-21T01:54:24.350Z,97492.66
2022-11-21T01:57:06.837Z,97489.41
2022-11-21T01:59:19.577Z,97499.22
2022-11-21T02:01:50.591Z,97490.22
2022-11-21T02:04:02.948Z,97487.22
2022-11-21T02:06:09.268Z,97488.88
2022-11-21T02:08:19.961Z,97489.94
2022-11-21T02:10:23.023Z,97490.47
2022-11-21T02:12:50.340Z,97486.41
2022-11-21T02:14:53.796Z,97483.69
2022-11-21T02:17:00.343Z,97484.50
2022-11-21T02:19:02.138Z,97476.88
2022-11-21T02:21:24.507Z,97482.31
2022-11-21T02:23:37.721Z,97477.47
2022-11-21T02:25:42.336Z,97482.91
2022-11-21T02:27:45.253Z,97480.19
2022-11-21T02:29:47.282Z,97488.88
2022-11-21T02:31:48.789Z,97486.69
2022-11-21T02:33:50.252Z,97486.69
2022-11-21T02:36:00.510Z,97487.53
2022-11-21T02:38:18.219Z,97481.53
2022-11-21T02:40:25.612Z,97489.69
2022-11-21T02:42:51.456Z,97474.44
2022-11-21T02:45:02.012Z,97475.28
2022-11-21T02:47:03.705Z,97476.88
2022-11-21T02:49:08.435Z,97469.28
2022-11-21T02:51:10.272Z,97470.09
2022-11-21T02:53:15.164Z,97475.53
2022-11-21T02:55:19.154Z,97471.19
2022-11-21T02:57:26.892Z,97478.00
2022-11-21T02:59:28.426Z,97469.28
2022-11-21T03:01:32.972Z,97463.84
2022-11-21T03:03:34.541Z,97463.56
2022-11-21T03:05:40.345Z,97461.66
2022-11-21T03:07:45.846Z,97467.09
2022-11-21T03:09:48.803Z,97467.09
2022-11-21T03:11:50.651Z,97472.56
2022-11-21T03:13:52.209Z,97470.09
2022-11-21T03:15:55.500Z,97454.56
2022-11-21T03:17:57.906Z,97457.28
2022-11-21T03:20:07.095Z,97456.22
2022-11-21T03:22:10.216Z,97453.50
2022-11-21T03:24:11.797Z,97457.03
2022-11-21T03:26:13.427Z,97454.03
2022-11-21T03:28:16.084Z,97459.47
2022-11-21T03:30:21.665Z,97458.66
2022-11-21T03:32:23.092Z,97461.13
2022-11-21T03:34:25.517Z,97458.94
2022-11-21T03:36:27.551Z,97458.13
2022-11-21T03:38:29.094Z,97444.22
2022-11-21T03:40:31.100Z,97454.56
2022-11-21T03:42:32.825Z,97454.56
2022-11-21T03:44:34.230Z,97450.50
2022-11-21T03:46:38.945Z,97451.31
2022-11-21T03:48:40.558Z,97461.66
2022-11-21T03:50:43.745Z,97451.31
2022-11-21T03:52:47.679Z,97455.94
2022-11-21T03:54:52.247Z,97459.47
2022-11-21T03:56:53.897Z,97456.75
2022-11-21T03:58:55.640Z,97454.31
2022-11-21T04:01:00.104Z,97452.38
2022-11-21T04:03:01.925Z,97458.41
2022-11-21T04:05:03.734Z,97458.94
2022-11-21T04:07:05.389Z,97460.56
2022-11-21T04:09:06.944Z,97452.66
2022-11-21T04:11:08.881Z,97454.56
2022-11-21T04:13:10.579Z,97443.69
2022-11-21T04:15:13.928Z,97440.72
2022-11-21T04:17:16.898Z,97443.16
2022-11-21T04:19:18.566Z,97438.53
2022-11-21T04:21:20.188Z,97442.84
2022-11-21T04:23:21.806Z,97442.59
2022-11-21T04:25:23.368Z,97448.31
2022-11-21T04:27:28.082Z,97446.41
2022-11-21T04:29:29.733Z,97443.69
2022-11-21T04:31:31.393Z,97459.19
2022-11-21T04:33:33.562Z,97451.03
2022-11-21T04:35:35.267Z,97456.47
2022-11-21T04:37:40.381Z,97442.84
2022-11-21T04:39:41.961Z,97446.94
2022-11-21T04:41:43.674Z,97448.88
2022-11-21T04:43:45.475Z,97448.03
2022-11-21T04:45:47.258Z,97446.94
2022-11-21T04:47:53.437Z,97448.56
2022-11-21T04:49:59.658Z,97449.94
2022-11-21T04:52:02.888Z,97448.03
2022-11-21T04:54:04.728Z,97451.03
2022-11-21T04:56:06.820Z,97441.78
2022-11-21T04:58:09.246Z,97439.06
2022-11-21T05:00:11.852Z,97444.50
2022-11-21T05:02:14.742Z,97442.59
2022-11-21T05:04:16.284Z,97441.78
2022-11-21T05:06:20.391Z,97442.59
2022-11-21T05:08:22.008Z,97432.53
2022-11-21T05:10:23.720Z,97436.34
2022-11-21T05:12:46.357Z,97435.50
2022-11-21T05:14:47.985Z,97440.41
2022-11-21T05:16:49.713Z,97443.97
2022-11-21T05:18:54.076Z,97443.97
2022-11-21T05:21:02.555Z,97444.78
2022-11-21T05:23:04.209Z,97442.31
2022-11-21T05:25:06.267Z,97438.78
2022-11-21T05:27:07.931Z,97451.59
2022-11-21T05:29:09.599Z,97457.84
2022-11-21T05:31:11.213Z,97452.66
2022-11-21T05:33:12.712Z,97451.59
2022-11-21T05:35:15.294Z,97448.06
2022-11-21T05:37:16.946Z,97447.22
2022-11-21T05:39:18.650Z,97452.97
2022-11-21T05:41:20.282Z,97456.75
2022-11-21T05:43:40.498Z,97449.66
2022-11-21T05:45:42.100Z,97453.50
2022-11-21T05:47:43.726Z,97448.88
2022-11-21T05:49:45.327Z,97441.78
2022-11-21T05:51:47.059Z,97440.97
2022-11-21T05:53:51.650Z,97443.69
2022-11-21T05:55:55.785Z,97440.97
2022-11-21T05:58:03.610Z,97440.97
2022-11-21T06:00:11.648Z,97446.41
2022-11-21T06:02:31.664Z,97453.75
2022-11-21T06:04:33.274Z,97456.75
2022-11-21T06:06:35.346Z,97454.84
2022-11-21T06:08:47.034Z,97463.03
2022-11-21T06:10:49.053Z,97456.75
2022-11-21T06:12:50.808Z,97457.59
2022-11-21T06:14:52.505Z,97461.13
2022-11-21T06:16:54.130Z,97462.75
2022-11-21T06:18:58.627Z,97463.84
2022-11-21T06:21:09.748Z,97459.19
2022-11-21T06:23:12.343Z,97462.19
2022-11-21T06:25:14.316Z,97467.66
2022-11-21T06:27:17.326Z,97468.47
2022-11-21T06:29:22.117Z,97475.53
2022-11-21T06:31:27.934Z,97477.72
2022-11-21T06:33:29.418Z,97479.59
2022-11-21T06:35:31.938Z,97478.00
2022-11-21T06:37:33.622Z,97481.78
2022-11-21T06:39:35.488Z,97481.78
2022-11-21T06:41:37.423Z,97480.97
2022-11-21T06:43:45.839Z,97482.06
2022-11-21T06:45:47.926Z,97490.78
2022-11-21T06:47:49.523Z,97489.69
2022-11-21T06:49:51.240Z,97487.78
2022-11-21T06:51:53.190Z,97503.31
2022-11-21T06:53:57.246Z,97497.28
2022-11-21T06:56:03.105Z,97498.66
2022-11-21T06:58:04.623Z,97496.50
2022-11-21T07:00:12.715Z,97504.66
2022-11-21T07:02:14.701Z,97504.66
2022-11-21T07:04:16.406Z,97502.75
2022-11-21T07:06:18.043Z,97503.56
2022-11-21T07:08:22.616Z,97501.94
2022-11-21T07:10:24.301Z,97509.53
2022-11-21T07:12:44.435Z,97508.19
2022-11-21T07:14:46.167Z,97514.44
2022-11-21T07:16:47.765Z,97509.28
2022-11-21T07:18:49.334Z,97518.81
2022-11-21T07:20:51.326Z,97519.06
2022-11-21T07:22:56.921Z,97520.72
2022-11-21T07:24:58.528Z,97514.44
2022-11-21T07:27:01.547Z,97520.72
2022-11-21T07:29:03.126Z,97525.63
2022-11-21T07:31:10.114Z,97531.06
2022-11-21T07:33:14.758Z,97526.69
2022-11-21T07:35:17.539Z,97528.34
2022-11-21T07:37:21.489Z,97526.44
2022-11-21T07:39:23.208Z,97523.16
2022-11-21T07:41:24.766Z,97533.50
2022-11-21T07:43:26.394Z,97524.78
2022-11-21T07:45:28.205Z,97523.72
2022-11-21T07:47:29.774Z,97518.00
2022-11-21T07:49:31.630Z,97525.88
2022-11-21T07:51:33.516Z,97526.44
2022-11-21T07:53:34.960Z,97529.69
2022-11-21T07:55:40.633Z,97530.25
2022-11-21T07:57:43.047Z,97531.88
2022-11-21T07:59:45.551Z,97532.44
2022-11-21T08:01:47.284Z,97535.16
2022-11-21T08:03:48.919Z,97538.94
2022-11-21T08:05:50.612Z,97535.41
2022-11-21T08:07:52.744Z,97541.66
2022-11-21T08:09:54.560Z,97533.25
2022-11-21T08:11:57.958Z,97539.22
2022-11-21T08:13:59.788Z,97538.13
2022-11-21T08:16:05.239Z,97546.56
2022-11-21T08:18:15.187Z,97540.06
2022-11-21T08:20:20.341Z,97537.34
2022-11-21T08:22:21.917Z,97529.44
2022-11-21T08:24:23.759Z,97534.06
2022-11-21T08:26:25.519Z,97541.44
2022-11-21T08:28:27.323Z,97529.72
2022-11-21T08:30:29.280Z,97527.25
2022-11-21T08:32:31.194Z,97529.44
2022-11-21T08:34:33.175Z,97526.69
2022-11-21T08:36:34.698Z,97530.78
2022-11-21T08:38:36.375Z,97528.34
2022-11-21T08:40:38.029Z,97531.34
2022-11-21T08:42:39.617Z,97528.88
2022-11-21T08:44:41.209Z,97529.16
2022-11-21T08:46:43.096Z,97539.22
2022-11-21T08:48:44.667Z,97533.47
2022-11-21T08:50:49.181Z,97538.38
2022-11-21T08:52:59.439Z,97547.09
2022-11-21T08:55:01.373Z,97553.88
2022-11-21T08:57:02.874Z,97542.72
2022-11-21T08:59:04.637Z,97552.25
2022-11-21T09:01:08.910Z,97554.69
2022-11-21T09:03:10.544Z,97561.25
2022-11-21T09:05:12.051Z,97559.31
2022-11-21T09:07:13.596Z,97565.34
2022-11-21T09:09:19.355Z,97567.22
2022-11-21T09:11:25.210Z,97557.69
2022-11-21T09:13:27.736Z,97558.50
2022-11-21T09:16:05.136Z,97561.19
2022-11-21T09:18:10.127Z,97565.81
2022-11-21T09:20:12.051Z,97560.34
2022-11-21T09:22:13.655Z,97570.69
2022-11-21T09:24:15.582Z,97562.22
2022-11-21T09:26:17.206Z,97566.84
2022-11-21T09:28:18.933Z,97560.56
2022-11-21T09:30:25.680Z,97565.47
2022-11-21T09:32:27.208Z,97568.75
2022-11-21T09:34:31.809Z,97569.03
2022-11-21T09:36:33.497Z,97568.75
2022-11-21T09:38:37.518Z,97574.78
2022-11-21T09:40:48.964Z,97567.13
2022-11-21T09:43:02.715Z,97563.28
2022-11-21T09:45:23.438Z,97561.69
2022-11-21T09:47:31.707Z,97569.00
2022-11-21T09:49:42.382Z,97566.56
2022-11-21T09:51:46.195Z,97563.03
2022-11-21T09:53:57.504Z,97563.28
2022-11-21T09:56:06.307Z,97565.72
2022-11-21T09:58:23.599Z,97560.28
2022-11-21T10:00:25.663Z,97565.19
2022-11-21T10:02:27.295Z,97563.28
2022-11-21T10:04:30.164Z,97561.66
2022-11-21T10:06:42.385Z,97569.28
2022-11-21T10:09:15.057Z,97567.38
2022-11-21T10:12:03.151Z,97567.13
2022-11-21T10:14:10.967Z,97551.59
2022-11-21T10:16:30.517Z,97549.38
2022-11-21T10:18:56.865Z,97541.44
2022-11-21T10:21:04.902Z,97548.53
2022-11-21T10:23:36.473Z,97539.81
2022-11-21T10:25:39.512Z,97535.41
2022-11-21T10:27:50.308Z,97535.72
2022-11-21T10:29:57.799Z,97532.44
2022-11-21T10:32:04.928Z,97531.31
2022-11-21T10:34:18.163Z,97526.69
2022-11-21T10:36:33.610Z,97540.31
2022-11-21T10:38:39.014Z,97535.69
2022-11-21T10:41:00.889Z,97533.22
2022-11-21T10:43:35.401Z,97541.41
2022-11-21T10:45:37.221Z,97537.88
2022-11-21T10:47:38.923Z,97538.66
2022-11-21T10:49:42.257Z,97536.25
2022-11-21T10:51:56.532Z,97533.50
2022-11-21T10:54:23.479Z,97535.41
2022-11-21T10:56:29.077Z,97531.88
2022-11-21T10:58:59.536Z,97524.50
2022-11-21T11:01:01.527Z,97521.75
2022-11-21T11:03:15.868Z,97521.22
2022-11-21T11:05:20.903Z,97526.94
2022-11-21T11:07:25.286Z,97526.34
2022-11-21T11:09:30.352Z,97529.91
2022-11-21T11:11:32.275Z,97531.56
2022-11-21T11:13:51.040Z,97520.88
2022-11-21T11:16:03.882Z,97522.00
2022-11-21T11:18:14.049Z,97501.50
2022-11-21T11:20:51.878Z,97509.94
2022-11-21T11:22:53.569Z,97504.75
2022-11-21T11:25:00.250Z,97511.25
2022-11-21T11:27:03.737Z,97508.78
2022-11-21T11:29:17.452Z,97512.00
2022-11-21T11:31:19.241Z,97504.63
2022-11-21T11:33:40.877Z,97493.47
2022-11-21T11:35:43.475Z,97500.25
2022-11-21T11:38:02.715Z,97490.94
2022-11-21T11:40:26.265Z,97492.06
2022-11-21T11:43:05.047Z,97489.59
2022-11-21T11:45:48.707Z,97487.16
2022-11-21T11:47:59.770Z,97481.41
2022-11-21T11:50:11.556Z,97486.63
2022-11-21T11:52:14.988Z,97484.72
2022-11-21T11:54:24.413Z,97479.25
2022-11-21T11:56:33.337Z,97473.28
2022-11-21T11:59:07.469Z,97481.47
2022-11-21T12:01:20.685Z,97468.88
2022-11-21T12:03:31.916Z,97455.97
2022-11-21T12:05:36.830Z,97460.03
2022-11-21T12:10:36.065Z,97451.50
2022-11-21T12:12:47.672Z,97453.44
2022-11-21T12:15:13.931Z,97450.69
2022-11-21T12:17:19.866Z,97449.88
2022-11-21T12:19:29.184Z,97444.19
2022-11-21T12:21:30.880Z,97440.06
2022-11-21T12:23:39.252Z,97432.41
2022-11-21T12:26:05.672Z,97435.41
2022-11-21T12:28:23.472Z,97423.13
2022-11-21T12:30:40.359Z,97419.84
2022-11-21T12:33:09.026Z,97425.31
2022-11-21T12:35:48.137Z,97423.09
2022-11-21T12:38:14.155Z,97427.72
2022-11-21T12:40:57.102Z,97420.25
2022-11-21T12:43:18.760Z,97417.47
2022-11-21T12:45:31.660Z,97405.94
2022-11-21T12:48:21.149Z,97405.81
2022-11-21T12:50:50.082Z,97408.97
2022-11-21T12:53:58.564Z,97407.47
2022-11-21T12:56:16.670Z,97403.13
2022-11-21T12:58:31.061Z,97397.28
2022-11-21T13:00:59.109Z,97395.72
2022-11-21T13:03:19.087Z,97393.38
2022-11-21T13:05:29.802Z,97392.44
2022-11-21T13:07:33.240Z,97390.38
2022-11-21T13:09:44.820Z,97394.09
2022-11-21T13:12:02.197Z,97392.59
2022-11-21T13:14:35.414Z,97378.53
2022-11-21T13:16:46.567Z,97388.78
2022-11-21T13:18:52.862Z,97385.97
2022-11-21T13:20:54.443Z,97381.53
2022-11-21T13:23:00.805Z,97373.22
2022-11-21T13:25:11.687Z,97376.47
2022-11-21T13:27:39.380Z,97367.47
2022-11-21T13:30:04.962Z,97373.53
2022-11-21T13:35:50.671Z,97371.03
2022-11-21T13:37:52.498Z,97364.53
2022-11-21T13:40:32.046Z,97364.59
2022-11-21T13:43:31.916Z,97369.66
2022-11-21T13:45:58.487Z,97370.94
2022-11-21T13:48:11.477Z,97365.53
2022-11-21T13:50:41.930Z,97369.75
2022-11-21T13:53:18.875Z,97362.34
2022-11-21T13:56:02.420Z,97358.03
2022-11-21T13:58:42.357Z,97361.69
2022-11-21T14:01:23.258Z,97359.00
2022-11-21T14:03:48.609Z,97346.75
2022-11-21T14:06:19.615Z,97350.91
2022-11-21T14:08:27.235Z,97350.72
2022-11-21T14:10:36.940Z,97349.38
2022-11-21T14:12:44.598Z,97354.63
2022-11-21T14:15:07.240Z,97355.50
2022-11-21T14:17:27.837Z,97356.59
2022-11-21T14:19:32.192Z,97349.53
2022-11-21T14:21:34.439Z,97347.59
2022-11-21T14:23:43.760Z,97352.84
2022-11-21T14:25:54.053Z,97341.91
2022-11-21T14:27:56.371Z,97344.13
2022-11-21T14:29:58.307Z,97345.22
2022-11-21T14:31:59.912Z,97348.03
2022-11-21T14:34:04.146Z,97345.88
2022-11-21T14:36:12.421Z,97341.78
2022-11-21T14:38:57.507Z,97349.22
2022-11-21T14:41:29.357Z,97345.72
2022-11-21T14:43:41.288Z,97334.56
2022-11-21T14:48:30.324Z,97344.22
2022-11-21T14:50:35.225Z,97346.44
2022-11-21T14:52:36.843Z,97343.44
2022-11-21T14:55:13.400Z,97333.13
2022-11-21T14:57:24.000Z,97332.13
2022-11-21T14:59:38.675Z,97328.38
2022-11-21T15:01:46.304Z,97323.16
2022-11-21T15:04:06.365Z,97315.66
2022-11-21T15:06:10.845Z,97317.81
2022-11-21T15:08:41.659Z,97313.25
2022-11-21T15:10:35.863Z,97305.13
2022-11-21T15:13:20.325Z,97295.06
2022-11-21T15:15:38.692Z,97289.16
2022-11-21T15:20:23.840Z,97283.50
2022-11-21T15:22:36.293Z,97271.78
2022-11-21T15:24:41.689Z,97263.38
2022-11-21T15:26:43.437Z,97268.88
2022-11-21T15:28:55.123Z,97262.66
2022-11-21T15:31:18.899Z,97253.72
2022-11-21T15:33:20.904Z,97249.41
2022-11-21T15:35:37.885Z,97245.09
2022-11-21T15:37:48.715Z,97232.34
2022-11-21T15:39:51.444Z,97237.53
2022-11-21T15:41:53.245Z,97234.03
2022-11-21T15:44:16.489Z,97222.38
2022-11-21T15:46:29.445Z,97216.44
2022-11-21T15:48:31.230Z,97224.66
2022-11-21T15:50:37.413Z,97218.75
2022-11-21T15:52:50.305Z,97223.72
2022-11-21T15:54:55.140Z,97224.56
2022-11-21T15:57:00.241Z,97225.41
2022-11-21T15:57:14.938Z,97286.69
2022-11-21T15:59:02.597Z,97230.91
2022-11-21T16:01:04.971Z,97242.66
2022-11-21T16:03:08.664Z,97236.44
2022-11-21T16:05:14.785Z,97232.41
2022-11-21T16:07:16.898Z,97226.72
2022-11-21T16:09:18.559Z,97229.47
2022-11-21T16:11:27.047Z,97230.59
2022-11-21T16:13:28.735Z,97217.81
2022-11-21T16:15:30.582Z,97220.06
2022-11-21T16:17:32.236Z,97208.38
2022-11-21T16:19:33.814Z,97202.97
2022-11-21T16:21:36.336Z,97204.09
2022-11-21T16:23:38.431Z,97193.75
2022-11-21T16:25:54.439Z,97180.72
2022-11-21T16:27:59.851Z,97185.91
2022-11-21T16:30:09.099Z,97174.50
2022-11-21T16:32:10.916Z,97175.91
2022-11-21T16:34:12.566Z,97173.22
2022-11-21T16:36:19.946Z,97163.44
2022-11-21T16:38:25.376Z,97163.47
2022-11-21T16:40:26.981Z,97159.94
2022-11-21T16:42:28.548Z,97156.19
2022-11-21T16:44:31.157Z,97156.72
2022-11-21T16:46:35.567Z,97151.59
2022-11-21T16:48:37.787Z,97152.16
2022-11-21T16:50:39.556Z,97146.72
2022-11-21T16:52:41.244Z,97148.09
2022-11-21T16:54:42.907Z,97147.31
2022-11-21T16:56:44.666Z,97152.50
2022-11-21T16:58:47.265Z,97146.25
2022-11-21T17:00:49.027Z,97144.38
2022-11-21T17:02:51.498Z,97142.19
2022-11-21T17:04:52.908Z,97144.41
2022-11-21T17:06:54.469Z,97140.06
2022-11-21T17:08:56.409Z,97133.81
2022-11-21T17:10:58.193Z,97138.44
2022-11-21T17:13:00.012Z,97146.06
2022-11-21T17:15:01.746Z,97140.63
2022-11-21T17:17:03.382Z,97132.22
2022-11-21T17:19:05.179Z,97133.84
2022-11-21T17:21:09.018Z,97127.88
2022-11-21T17:23:10.695Z,97119.75
2022-11-21T17:25:12.742Z,97114.03
2022-11-21T17:27:17.314Z,97110.25
2022-11-21T17:29:19.024Z,97108.91
2022-11-21T17:31:21.111Z,97105.66
2022-11-21T17:33:22.836Z,97094.50
2022-11-21T17:35:24.435Z,97096.94
2022-11-21T17:37:26.088Z,97098.06
2022-11-21T17:39:29.935Z,97082.31
2022-11-21T17:41:32.184Z,97074.16
2022-11-21T17:43:37.071Z,97083.41
2022-11-21T17:45:38.924Z,97075.00
2022-11-21T17:47:44.154Z,97071.19
2022-11-21T17:49:48.701Z,97066.03
2022-11-21T17:51:55.194Z,97066.34
2022-11-21T17:53:59.600Z,97063.84
2022-11-21T17:56:04.173Z,97064.94
2022-11-21T17:58:17.427Z,97056.81
2022-11-21T18:00:19.308Z,97067.09
2022-11-21T18:02:22.373Z,97060.59
2022-11-21T18:04:24.246Z,97065.50
2022-11-21T18:06:28.495Z,97064.13
2022-11-21T18:08:35.060Z,97057.06
2022-11-21T18:10:43.409Z,97059.78
2022-11-21T18:12:45.709Z,97057.88
2022-11-21T18:14:47.702Z,97057.34
2022-11-21T18:16:52.992Z,97055.16
2022-11-21T18:19:15.606Z,97048.38
2022-11-21T18:21:22.245Z,97042.44
2022-11-21T18:23:24.194Z,97045.41
2022-11-21T18:25:34.640Z,97034.53
2022-11-21T18:27:39.328Z,97029.69
2022-11-21T18:29:44.023Z,97029.69
2022-11-21T18:31:45.953Z,97034.28
2022-11-21T18:33:54.165Z,97032.41
2022-11-21T18:35:55.847Z,97024.25
2022-11-21T18:37:58.211Z,97025.88
2022-11-21T18:39:59.854Z,97026.41
2022-11-21T18:42:08.852Z,97022.91
2022-11-21T18:44:12.657Z,97012.31
2022-11-21T18:46:16.482Z,97002.00
2022-11-21T18:48:18.234Z,97007.16
2022-11-21T18:50:24.701Z,96994.16
2022-11-21T18:52:28.591Z,96999.56
2022-11-21T18:54:33.158Z,96999.28
2022-11-21T18:56:35.561Z,96988.72
2022-11-21T18:58:38.812Z,96984.66
2022-11-21T19:00:40.646Z,96987.06
2022-11-21T19:02:42.274Z,96987.06
2022-11-21T19:04:44.042Z,96979.22
2022-11-21T19:06:45.781Z,96992.78
2022-11-21T19:08:53.328Z,96989.78
2022-11-21T19:10:55.008Z,96994.97
2022-11-21T19:12:56.651Z,96991.72
2022-11-21T19:15:07.581Z,96988.44
2022-11-21T19:17:10.438Z,96980.31
2022-11-21T19:21:39.801Z,96984.38
2022-11-21T19:23:45.605Z,96980.31
2022-11-21T19:25:47.396Z,96976.25
2022-11-21T19:27:49.031Z,96974.63
2022-11-21T19:29:55.479Z,96980.88
2022-11-21T19:31:57.028Z,96973.00
2022-11-21T19:33:58.542Z,96980.31
2022-11-21T19:36:20.627Z,96970.56
2022-11-21T19:38:29.787Z,96987.38
2022-11-21T19:40:51.591Z,96991.97
2022-11-21T19:42:53.119Z,96988.72
2022-11-21T19:44:55.444Z,96988.19
2022-11-21T19:46:57.324Z,96995.50
2022-11-21T19:49:01.820Z,97003.63
2022-11-21T19:51:06.106Z,97007.94
2022-11-21T19:53:07.946Z,96993.31
2022-11-21T19:55:11.605Z,96993.84
2022-11-21T19:57:14.207Z,96989.53
2022-11-21T19:59:15.882Z,96981.13
2022-11-21T20:01:20.283Z,96973.81
2022-11-21T20:03:24.877Z,96973.00
2022-11-21T20:05:26.660Z,96962.97
2022-11-21T20:07:28.331Z,96967.28
2022-11-21T20:09:34.461Z,96963.78
2022-11-21T20:11:39.533Z,96970.00
2022-11-21T20:13:45.938Z,96974.34
2022-11-21T20:15:47.938Z,96961.84
2022-11-21T20:17:50.680Z,96959.72
2022-11-21T20:19:52.289Z,96956.19
2022-11-21T20:21:54.122Z,96948.88
2022-11-21T20:23:59.545Z,96949.94
2022-11-21T20:26:07.253Z,96959.72
2022-11-21T20:28:11.784Z,96959.97
2022-11-21T20:30:13.843Z,96945.59
2022-11-21T20:32:15.535Z,96933.16
2022-11-21T20:34:17.319Z,96908.22
2022-11-21T20:36:21.891Z,96898.44
2022-11-21T20:38:24.634Z,96884.59
2022-11-21T20:40:26.614Z,96884.59
2022-11-21T20:42:28.336Z,96861.03
2022-11-21T20:45:54.332Z,96862.66
2022-11-21T20:47:18.581Z,96880.53
2022-11-21T20:49:20.108Z,96889.22
2022-11-21T20:53:51.856Z,96864.56
2022-11-21T20:56:12.089Z,96872.41
2022-11-21T20:58:15.669Z,96864.28
2022-11-21T21:00:17.930Z,96859.41
2022-11-21T21:02:19.599Z,96865.91
2022-11-21T21:04:21.460Z,96864.03
2022-11-21T21:06:26.540Z,96861.31
2022-11-21T21:08:28.671Z,96869.16
2022-11-21T21:10:51.445Z,96856.72
2022-11-21T21:12:55.254Z,96846.41
2022-11-21T21:14:57.397Z,96845.03
2022-11-21T21:16:59.359Z,96843.16
2022-11-21T21:19:03.274Z,96842.31
2022-11-21T21:21:16.905Z,96846.66
2022-11-21T21:23:22.025Z,96853.16
2022-11-21T21:25:24.095Z,96857.75
2022-11-21T21:27:34.697Z,96859.13
2022-11-21T21:29:36.806Z,96863.72
2022-11-21T21:31:39.113Z,96857.22
2022-11-21T21:33:41.444Z,96862.91
2022-11-21T21:35:45.352Z,96864.00
2022-11-21T21:37:48.395Z,96860.47
2022-11-21T21:39:50.132Z,96858.56
2022-11-21T21:41:52.009Z,96857.22
2022-11-21T21:43:55.506Z,96859.94
2022-11-21T21:46:03.191Z,96868.06
2022-11-21T21:48:04.976Z,96858.81
2022-11-21T21:50:10.264Z,96862.63
2022-11-21T21:52:17.390Z,96859.94
2022-11-21T21:54:20.645Z,96858.28
2022-11-21T21:56:24.555Z,96859.09
2022-11-21T21:58:29.367Z,96853.41
2022-11-21T22:00:37.082Z,96850.97
2022-11-21T22:02:39.583Z,96848.25
2022-11-21T22:04:41.166Z,96854.50
2022-11-21T22:06:42.698Z,96856.09
2022-11-21T22:08:45.908Z,96861.53
2022-11-21T22:10:47.410Z,96860.47
2022-11-21T22:12:49.111Z,96847.97
2022-11-21T22:14:50.714Z,96842.56
2022-11-21T22:16:52.541Z,96836.34
2022-11-21T22:18:54.405Z,96830.91
2022-11-21T22:20:56.174Z,96839.84
2022-11-21T22:23:00.533Z,96832.81
2022-11-21T22:25:02.434Z,96825.75
2022-11-21T22:27:04.026Z,96835.50
2022-11-21T22:29:06.477Z,96824.13
2022-11-21T22:31:08.531Z,96829.00
2022-11-21T22:33:10.093Z,96827.09
2022-11-21T22:35:11.735Z,96814.63
2022-11-21T22:37:13.494Z,96817.59
2022-11-21T22:39:18.842Z,96822.50
2022-11-21T22:41:24.470Z,96801.09
2022-11-21T22:43:27.324Z,96796.22
2022-11-21T22:45:31.729Z,96810.59
2022-11-21T22:47:33.370Z,96820.06
2022-11-21T22:49:35.099Z,96822.50
2022-11-21T22:51:36.867Z,96820.84
2022-11-21T22:53:40.266Z,96827.91
2022-11-21T22:55:45.247Z,96822.50
2022-11-21T22:57:46.862Z,96817.91
2022-11-21T22:59:48.976Z,96812.47
2022-11-21T23:01:50.631Z,96810.00
2022-11-21T23:03:55.801Z,96805.16
2022-11-21T23:06:04.870Z,96801.88
2022-11-21T23:08:08.953Z,96795.09
2022-11-21T23:10:11.049Z,96804.34
2022-11-21T23:12:12.927Z,96806.25
2022-11-21T23:14:14.730Z,96810.03
2022-11-21T23:16:17.288Z,96811.38
2022-11-21T23:18:18.942Z,96807.06
2022-11-21T23:20:29.123Z,96821.44
2022-11-21T23:22:30.607Z,96811.94
2022-11-21T23:24:35.561Z,96808.66
2022-11-21T23:26:37.199Z,96813.31
2022-11-21T23:28:38.778Z,96809.78
2022-11-21T23:30:40.422Z,96813.00
2022-11-21T23:32:42.165Z,96808.41
2022-11-21T23:34:43.813Z,96821.16
2022-11-21T23:36:45.564Z,96824.16
2022-11-21T23:38:47.162Z,96830.09
2022-11-21T23:40:49.645Z,96823.03
2022-11-21T23:42:51.637Z,96826.84
2022-11-21T23:44:53.697Z,96825.75
2022-11-21T23:47:01.069Z,96825.75
2022-11-21T23:49:02.896Z,96820.06
2022-11-21T23:51:04.523Z,96819.81
2022-11-21T23:53:06.183Z,96814.38
2022-11-21T23:55:08.193Z,96819.81
2022-11-21T23:57:12.147Z,96815.19
2022-11-21T23:59:13.717Z,96813.84
